Terminal Aerodrome Forecast
Issued by NWS New Orleans/Baton Rouge, LA

Home | Current Version | Previous Version | Text Only | Print | Product List | Glossary On
Versions: 1 2 3 4 5 6 7 8 9 10 11 12 13 14 15 16 17 18 19
028
FTUS44 KLIX 161731
TAFBTR
TAF
KBTR 161731Z 1618/1718 16010KT P6SM BKN070
     FM170200 15006KT P6SM BKN050
     FM170500 16005KT P6SM BKN020
     FM171000 16005KT 3SM BR BKN008
     FM171300 16007KT P6SM BKN005
     FM171700 19006KT P6SM BKN015=

USA.gov is the U.S. government's official web portal to all federal, state and local government web resources and services.